Aviation Digital Data Service (ADDS)

Output produced by METARs form (0243 UTC 24 July 2017)
found at http://www.aviationweather.gov/adds/metars/
 
TAF WPDL 232203Z 2400/2412 15006KT CAVOK 
     FM240100 30007KT CAVOK 
     FM240500 03008KT 9999 SCT030